Time;durP1;ratioP1;P1;durP2;ratioP2;P2;SDS_P1;SDS_P2;PMS_P1;PMS_P2;Temp;Humidity;BMP_temperature;BMP_pressure;BME280_temperature;BME280_humidity;BME280_pressure;Samples;Min_cycle;Max_cycle;Signal;HPM_P1;HPM_P2
2022/07/19 00:02:21;;;;;;;5.72;2.92;;;;;;;;;;5050906;28;20219;-69
2022/07/19 00:04:46;;;;;;;8.18;2.70;;;;;;;;;;5051407;28;20207;-69
2022/07/19 00:07:11;;;;;;;8.65;2.40;;;;;;;;;;5049710;28;20257;-69
2022/07/19 00:09:38;;;;;;;8.02;2.70;;;;;;;;;;5051739;28;20258;-69
2022/07/19 00:12:03;;;;;;;5.40;2.60;;;;;;;;;;5050856;28;20306;-68
2022/07/19 00:14:28;;;;;;;4.65;2.63;;;;;;;;;;5050787;28;20211;-68
2022/07/19 00:16:54;;;;;;;6.97;2.80;;;;;;;;;;5050905;28;20217;-69
2022/07/19 00:19:19;;;;;;;4.32;2.85;;;;;;;;;;5050716;28;20207;-69
2022/07/19 00:21:44;;;;;;;6.32;2.90;;;;;;;;;;5050294;28;20211;-69
2022/07/19 00:24:10;;;;;;;4.18;2.60;;;;;;;;;;5051009;28;20578;-69
2022/07/19 00:26:35;;;;;;;5.05;2.72;;;;;;;;;;5050721;28;20215;-68
2022/07/19 00:29:01;;;;;;;6.22;3.08;;;;;;;;;;5050243;28;20211;-69
2022/07/19 00:31:27;;;;;;;7.40;3.00;;;;;;;;;;5050870;28;20211;-68
2022/07/19 00:33:52;;;;;;;6.40;2.80;;;;;;;;;;5050963;28;20261;-69
2022/07/19 00:36:18;;;;;;;6.22;2.58;;;;;;;;;;5049506;28;20211;-68
2022/07/19 00:38:43;;;;;;;5.40;2.83;;;;;;;;;;5051354;28;20256;-69
2022/07/19 00:41:08;;;;;;;5.78;2.70;;;;;;;;;;5050014;28;20592;-69
2022/07/19 00:43:34;;;;;;;7.25;3.13;;;;;;;;;;5051178;28;20222;-69
2022/07/19 00:45:59;;;;;;;5.43;2.80;;;;;;;;;;5050874;28;20244;-68
2022/07/19 00:48:24;;;;;;;4.97;2.60;;;;;;;;;;5049580;28;20780;-69
2022/07/19 00:50:50;;;;;;;5.57;2.92;;;;;;;;;;5050968;28;20595;-69
2022/07/19 00:53:15;;;;;;;4.88;2.90;;;;;;;;;;5032553;28;20688;-69
2022/07/19 00:55:40;;;;;;;7.10;2.65;;;;;;;;;;5050413;28;20741;-69
2022/07/19 00:58:06;;;;;;;6.97;2.80;;;;;;;;;;5050678;28;20218;-68
2022/07/19 01:00:32;;;;;;;4.53;2.65;;;;;;;;;;5033124;28;20211;-69
2022/07/19 01:02:57;;;;;;;4.97;2.30;;;;;;;;;;5015304;28;20759;-69
2022/07/19 01:05:22;;;;;;;4.45;2.53;;;;;;;;;;5050276;28;20212;-69
2022/07/19 01:07:48;;;;;;;8.88;2.70;;;;;;;;;;5050539;28;20219;-69
2022/07/19 01:10:14;;;;;;;4.45;2.30;;;;;;;;;;5049732;28;20249;-69
2022/07/19 01:12:39;;;;;;;4.03;2.45;;;;;;;;;;5050995;28;20677;-69
2022/07/19 01:15:15;;;;;;;4.95;2.53;;;;;;;;;;5050179;28;20252;-69
2022/07/19 01:17:40;;;;;;;4.90;2.42;;;;;;;;;;5031837;28;20207;-69
2022/07/19 01:20:06;;;;;;;7.30;2.60;;;;;;;;;;5050140;28;20215;-69
2022/07/19 01:22:31;;;;;;;6.35;2.60;;;;;;;;;;5050627;28;20621;-69
2022/07/19 01:24:56;;;;;;;5.45;2.78;;;;;;;;;;5050177;28;20223;-69
2022/07/19 01:27:22;;;;;;;5.72;2.40;;;;;;;;;;5050299;28;20215;-69
2022/07/19 01:29:47;;;;;;;6.03;2.53;;;;;;;;;;5050701;28;20211;-69
2022/07/19 01:32:12;;;;;;;3.95;2.30;;;;;;;;;;5049084;28;20311;-69
2022/07/19 01:34:38;;;;;;;6.13;2.78;;;;;;;;;;5050416;28;20283;-69
2022/07/19 01:37:03;;;;;;;6.15;2.50;;;;;;;;;;5051803;28;20218;-70
2022/07/19 01:39:28;;;;;;;7.18;2.70;;;;;;;;;;5053437;28;20211;-70
2022/07/19 01:41:53;;;;;;;7.28;2.60;;;;;;;;;;5054485;28;20207;-70
2022/07/19 01:44:19;;;;;;;5.97;2.50;;;;;;;;;;5052856;28;20241;-69
2022/07/19 01:46:44;;;;;;;5.95;2.50;;;;;;;;;;5053767;28;20705;-69
2022/07/19 01:49:09;;;;;;;6.35;3.10;;;;;;;;;;5053439;28;20313;-69
2022/07/19 01:51:35;;;;;;;5.07;2.33;;;;;;;;;;5053253;28;20207;-69
2022/07/19 01:54:00;;;;;;;6.20;2.63;;;;;;;;;;5053823;28;20214;-69
2022/07/19 01:56:25;;;;;;;4.65;2.67;;;;;;;;;;5053861;28;20219;-69
2022/07/19 01:58:51;;;;;;;6.38;2.60;;;;;;;;;;5053160;28;20219;-69
2022/07/19 02:01:16;;;;;;;4.97;2.60;;;;;;;;;;5053010;28;20211;-69
2022/07/19 02:03:41;;;;;;;5.40;2.30;;;;;;;;;;5053727;28;20322;-69
2022/07/19 02:06:07;;;;;;;5.03;2.72;;;;;;;;;;5042919;28;20235;-69
2022/07/19 02:08:32;;;;;;;7.88;3.00;;;;;;;;;;5042088;28;20529;-70
2022/07/19 02:10:59;;;;;;;5.15;2.40;;;;;;;;;;5033776;28;20708;-73
2022/07/19 02:13:24;;;;;;;5.55;2.35;;;;;;;;;;5009817;28;20632;-70
2022/07/19 02:15:50;;;;;;;6.20;2.40;;;;;;;;;;5004671;28;20303;-70
2022/07/19 02:18:15;;;;;;;4.70;2.38;;;;;;;;;;4986888;28;20240;-70
2022/07/19 02:20:40;;;;;;;5.45;2.60;;;;;;;;;;5006103;28;20226;-70
2022/07/19 02:23:06;;;;;;;5.20;2.30;;;;;;;;;;5023227;28;20232;-70
2022/07/19 02:25:31;;;;;;;6.72;2.22;;;;;;;;;;5023506;28;20458;-70
2022/07/19 02:27:56;;;;;;;4.72;2.40;;;;;;;;;;5023055;28;20261;-70
2022/07/19 02:30:22;;;;;;;5.20;2.40;;;;;;;;;;5021969;28;20227;-70
2022/07/19 02:32:47;;;;;;;5.82;2.42;;;;;;;;;;5023123;28;20250;-70
2022/07/19 02:35:12;;;;;;;4.50;2.35;;;;;;;;;;5021713;28;20246;-70
2022/07/19 02:37:39;;;;;;;4.00;2.45;;;;;;;;;;5023368;28;20243;-70
2022/07/19 02:40:05;;;;;;;6.65;2.65;;;;;;;;;;5022676;28;20211;-70
2022/07/19 02:42:30;;;;;;;3.40;2.10;;;;;;;;;;5022605;28;20246;-70
2022/07/19 02:44:56;;;;;;;5.45;2.50;;;;;;;;;;5023397;28;20694;-70
2022/07/19 02:47:21;;;;;;;4.88;2.60;;;;;;;;;;5010687;28;20287;-70
2022/07/19 02:49:46;;;;;;;4.82;2.40;;;;;;;;;;5002004;28;20263;-70
2022/07/19 02:52:11;;;;;;;5.78;2.20;;;;;;;;;;5002969;28;20244;-70
2022/07/19 02:54:37;;;;;;;5.60;2.58;;;;;;;;;;5003330;28;20225;-71
2022/07/19 02:57:03;;;;;;;3.95;2.20;;;;;;;;;;5002956;28;20219;-71
2022/07/19 02:59:28;;;;;;;4.75;2.15;;;;;;;;;;5003457;28;20317;-71
2022/07/19 03:01:53;;;;;;;3.90;2.20;;;;;;;;;;5002446;28;20684;-71
2022/07/19 03:04:19;;;;;;;5.13;2.40;;;;;;;;;;5002294;28;20728;-70
2022/07/19 03:06:44;;;;;;;4.80;2.40;;;;;;;;;;5002653;28;20275;-71
2022/07/19 03:09:11;;;;;;;5.13;2.40;;;;;;;;;;5021719;28;20218;-70
2022/07/19 03:11:37;;;;;;;5.78;2.40;;;;;;;;;;5006926;28;20359;-71
2022/07/19 03:14:02;;;;;;;5.93;2.42;;;;;;;;;;5004480;28;20303;-70
2022/07/19 03:16:27;;;;;;;6.32;2.53;;;;;;;;;;5002924;28;20223;-71
2022/07/19 03:18:53;;;;;;;3.85;2.20;;;;;;;;;;5002646;28;20700;-71
2022/07/19 03:21:18;;;;;;;5.13;2.10;;;;;;;;;;5012426;28;20269;-72
2022/07/19 03:23:43;;;;;;;4.43;2.20;;;;;;;;;;5021487;28;20265;-71
2022/07/19 03:26:09;;;;;;;6.22;2.47;;;;;;;;;;5039471;28;20583;-70
2022/07/19 03:28:34;;;;;;;3.65;2.00;;;;;;;;;;5042100;28;20250;-70
2022/07/19 03:30:59;;;;;;;5.20;2.30;;;;;;;;;;5023212;28;20250;-70
2022/07/19 03:33:25;;;;;;;4.25;2.47;;;;;;;;;;5021995;28;20578;-72
2022/07/19 03:35:50;;;;;;;4.50;2.30;;;;;;;;;;5022627;28;20220;-72
2022/07/19 03:38:16;;;;;;;5.40;2.13;;;;;;;;;;5021432;28;20706;-71
2022/07/19 03:40:42;;;;;;;5.75;2.20;;;;;;;;;;5041960;28;20701;-71
2022/07/19 03:43:07;;;;;;;5.70;2.30;;;;;;;;;;5041767;28;20219;-71
2022/07/19 03:45:33;;;;;;;4.28;2.13;;;;;;;;;;5040778;28;20851;-71
2022/07/19 03:47:58;;;;;;;4.85;2.08;;;;;;;;;;5041889;28;20218;-72
2022/07/19 03:50:23;;;;;;;4.05;2.08;;;;;;;;;;5040962;28;20218;-74
2022/07/19 03:52:49;;;;;;;4.22;2.08;;;;;;;;;;5040949;28;20221;-72
2022/07/19 03:55:14;;;;;;;4.80;2.10;;;;;;;;;;5023730;28;20615;-72
2022/07/19 03:57:39;;;;;;;6.10;2.38;;;;;;;;;;5036457;28;20732;-73
2022/07/19 04:00:05;;;;;;;8.63;2.40;;;;;;;;;;5020358;28;20239;-72
2022/07/19 04:02:30;;;;;;;5.60;2.20;;;;;;;;;;5004295;28;20741;-72
2022/07/19 04:04:56;;;;;;;5.03;2.28;;;;;;;;;;5021126;28;20635;-71
2022/07/19 04:07:21;;;;;;;10.15;2.13;;;;;;;;;;5001572;28;20696;-71
2022/07/19 04:09:46;;;;;;;5.00;2.30;;;;;;;;;;5002231;28;20209;-71
2022/07/19 04:12:12;;;;;;;5.63;2.25;;;;;;;;;;4999827;28;20239;-71
2022/07/19 04:14:37;;;;;;;6.82;2.38;;;;;;;;;;5002421;28;20725;-72
2022/07/19 04:17:04;;;;;;;5.18;2.50;;;;;;;;;;5001554;28;20671;-71
2022/07/19 04:19:29;;;;;;;5.72;2.38;;;;;;;;;;5001799;28;20621;-75
2022/07/19 04:21:55;;;;;;;4.67;2.23;;;;;;;;;;5020377;28;20080;-70
2022/07/19 04:24:20;;;;;;;4.93;2.22;;;;;;;;;;5016064;28;20235;-69
2022/07/19 04:26:45;;;;;;;5.03;2.63;;;;;;;;;;5001393;28;20223;-66
2022/07/19 04:29:11;;;;;;;6.32;2.20;;;;;;;;;;5002435;28;20216;-69
2022/07/19 04:31:36;;;;;;;4.40;2.33;;;;;;;;;;5001742;28;20223;-66
2022/07/19 04:34:01;;;;;;;6.13;2.30;;;;;;;;;;5000920;28;20223;-68
2022/07/19 04:36:27;;;;;;;2.95;2.15;;;;;;;;;;4999304;28;20217;-66
2022/07/19 04:38:52;;;;;;;4.25;2.00;;;;;;;;;;5002204;28;20214;-65
2022/07/19 04:41:17;;;;;;;4.72;2.30;;;;;;;;;;5002059;28;20691;-66
2022/07/19 04:43:42;;;;;;;10.90;3.00;;;;;;;;;;5002025;28;20299;-62
2022/07/19 04:46:08;;;;;;;6.93;2.60;;;;;;;;;;5001825;28;20676;-63
2022/07/19 04:48:33;;;;;;;7.72;2.05;;;;;;;;;;5000713;28;20223;-63
2022/07/19 04:50:58;;;;;;;7.93;2.40;;;;;;;;;;5020954;28;20282;-64
2022/07/19 04:53:24;;;;;;;4.70;2.22;;;;;;;;;;5020728;28;20223;-64
2022/07/19 04:55:49;;;;;;;4.68;2.22;;;;;;;;;;5020777;28;20235;-66
2022/07/19 04:58:14;;;;;;;4.88;2.10;;;;;;;;;;5020683;28;20226;-66
2022/07/19 05:00:40;;;;;;;6.30;2.60;;;;;;;;;;5021113;28;20212;-63
2022/07/19 05:03:05;;;;;;;17.05;2.60;;;;;;;;;;5019711;28;20232;-69
2022/07/19 05:05:31;;;;;;;5.18;2.30;;;;;;;;;;5025341;28;20231;-66
2022/07/19 05:07:56;;;;;;;5.05;1.80;;;;;;;;;;5040565;28;20234;-66
2022/07/19 05:10:21;;;;;;;5.32;2.38;;;;;;;;;;5035536;28;20212;-66
2022/07/19 05:12:47;;;;;;;8.93;2.22;;;;;;;;;;5024278;28;20220;-67
2022/07/19 05:15:12;;;;;;;5.43;2.13;;;;;;;;;;5024587;28;20621;-67
2022/07/19 05:17:37;;;;;;;3.60;1.90;;;;;;;;;;5024459;28;20717;-66
2022/07/19 05:20:03;;;;;;;6.65;1.80;;;;;;;;;;5024505;28;20315;-66
2022/07/19 05:22:29;;;;;;;4.65;2.00;;;;;;;;;;5043944;28;20260;-68
2022/07/19 05:24:55;;;;;;;6.55;1.90;;;;;;;;;;5044466;28;20227;-68
2022/07/19 05:27:21;;;;;;;3.85;2.15;;;;;;;;;;5044587;28;20226;-68
2022/07/19 05:29:46;;;;;;;4.20;2.25;;;;;;;;;;5035207;28;20306;-68
2022/07/19 05:32:11;;;;;;;4.90;2.17;;;;;;;;;;5024241;28;20306;-66
2022/07/19 05:34:37;;;;;;;7.63;2.13;;;;;;;;;;5024476;28;20536;-66
2022/07/19 05:37:02;;;;;;;6.70;2.30;;;;;;;;;;5022904;28;20284;-66
2022/07/19 05:39:27;;;;;;;7.45;2.15;;;;;;;;;;5024429;28;20222;-66
2022/07/19 05:41:53;;;;;;;6.18;2.90;;;;;;;;;;5024725;28;20335;-67
2022/07/19 05:44:18;;;;;;;11.68;3.00;;;;;;;;;;5023410;28;20231;-66
2022/07/19 05:46:43;;;;;;;7.70;3.40;;;;;;;;;;5024396;28;20270;-67
2022/07/19 05:49:09;;;;;;;6.90;4.20;;;;;;;;;;5024202;28;20671;-66
2022/07/19 05:51:35;;;;;;;9.15;4.70;;;;;;;;;;5042515;28;20238;-68
2022/07/19 05:54:00;;;;;;;11.52;4.40;;;;;;;;;;5026121;28;20674;-67
2022/07/19 05:56:26;;;;;;;11.88;4.32;;;;;;;;;;5032039;28;20234;-67
2022/07/19 05:58:51;;;;;;;7.45;5.22;;;;;;;;;;5031708;28;20216;-68
2022/07/19 06:01:18;;;;;;;8.52;5.20;;;;;;;;;;5023372;28;20254;-68
2022/07/19 06:03:43;;;;;;;10.90;5.20;;;;;;;;;;5013240;28;20232;-67
2022/07/19 06:06:09;;;;;;;8.82;5.47;;;;;;;;;;5003094;28;20721;-68
2022/07/19 06:08:34;;;;;;;9.30;6.07;;;;;;;;;;5003658;28;20663;-65
2022/07/19 06:10:59;;;;;;;13.52;6.85;;;;;;;;;;5013017;28;20547;-65
2022/07/19 06:13:25;;;;;;;12.40;7.13;;;;;;;;;;5023305;28;20223;-65
2022/07/19 06:15:50;;;;;;;12.98;7.38;;;;;;;;;;5029378;28;20744;-66
2022/07/19 06:18:15;;;;;;;12.55;7.63;;;;;;;;;;5023458;28;20219;-66
2022/07/19 06:20:41;;;;;;;13.88;7.07;;;;;;;;;;5028527;28;20744;-66
2022/07/19 06:23:06;;;;;;;14.43;7.28;;;;;;;;;;5041713;28;20223;-66
2022/07/19 06:25:32;;;;;;;12.15;7.63;;;;;;;;;;5043234;28;20245;-66
2022/07/19 06:27:58;;;;;;;10.77;7.70;;;;;;;;;;5042763;28;20682;-66
2022/07/19 06:30:23;;;;;;;14.38;7.88;;;;;;;;;;5029833;28;20274;-67
2022/07/19 06:32:48;;;;;;;13.25;7.60;;;;;;;;;;5023030;28;20247;-65
2022/07/19 06:35:13;;;;;;;12.57;7.22;;;;;;;;;;5023026;28;20218;-66
2022/07/19 06:37:39;;;;;;;10.07;6.78;;;;;;;;;;5023484;28;20250;-66
2022/07/19 06:40:04;;;;;;;9.48;5.57;;;;;;;;;;5021934;28;20571;-65
2022/07/19 06:42:30;;;;;;;11.55;5.60;;;;;;;;;;5043238;28;20273;-66
2022/07/19 06:44:56;;;;;;;13.00;5.95;;;;;;;;;;5042802;28;20208;-67
2022/07/19 06:47:21;;;;;;;11.02;6.18;;;;;;;;;;5042192;28;20316;-65
2022/07/19 06:49:46;;;;;;;11.80;6.30;;;;;;;;;;5042938;28;20249;-65
2022/07/19 06:52:12;;;;;;;9.77;5.00;;;;;;;;;;5042468;28;20230;-66
2022/07/19 06:54:37;;;;;;;12.52;5.95;;;;;;;;;;5042161;28;20250;-65
2022/07/19 06:57:02;;;;;;;15.43;6.38;;;;;;;;;;5042712;28;20566;-66
2022/07/19 06:59:28;;;;;;;13.73;6.40;;;;;;;;;;5043318;28;20749;-66
2022/07/19 07:01:53;;;;;;;9.45;5.25;;;;;;;;;;5046982;28;20688;-66
2022/07/19 07:04:18;;;;;;;12.98;6.35;;;;;;;;;;5031529;28;20231;-65
2022/07/19 07:06:44;;;;;;;11.50;5.90;;;;;;;;;;5032204;28;20230;-65
2022/07/19 07:09:09;;;;;;;13.85;6.30;;;;;;;;;;5031091;28;20235;-66
2022/07/19 07:11:34;;;;;;;12.77;5.78;;;;;;;;;;5045506;28;20238;-65
2022/07/19 07:13:59;;;;;;;13.10;6.25;;;;;;;;;;5052690;28;20748;-66
2022/07/19 07:16:25;;;;;;;10.98;5.97;;;;;;;;;;5051243;28;20207;-68
2022/07/19 07:18:50;;;;;;;8.38;5.35;;;;;;;;;;5052345;28;20235;-66
2022/07/19 07:21:15;;;;;;;8.10;4.68;;;;;;;;;;5030907;28;20212;-66
2022/07/19 07:23:41;;;;;;;11.38;5.60;;;;;;;;;;5019908;28;20224;-66
2022/07/19 07:26:06;;;;;;;8.40;5.30;;;;;;;;;;5012002;28;20240;-66
2022/07/19 07:28:31;;;;;;;10.98;5.95;;;;;;;;;;5012633;28;20311;-68
2022/07/19 07:30:57;;;;;;;10.98;5.43;;;;;;;;;;5029762;28;20294;-67
2022/07/19 07:33:22;;;;;;;11.18;6.32;;;;;;;;;;5031692;28;20220;-66
2022/07/19 07:35:47;;;;;;;10.23;5.63;;;;;;;;;;5031682;28;20542;-66
2022/07/19 07:38:13;;;;;;;10.07;6.20;;;;;;;;;;5030831;28;20218;-66
2022/07/19 07:40:38;;;;;;;11.70;5.75;;;;;;;;;;5014316;28;20674;-67
2022/07/19 07:43:03;;;;;;;10.30;5.75;;;;;;;;;;5030764;28;20227;-67
2022/07/19 07:45:29;;;;;;;11.95;5.32;;;;;;;;;;5032181;28;20623;-67
2022/07/19 07:47:54;;;;;;;12.25;6.05;;;;;;;;;;5031835;28;20207;-66
2022/07/19 07:50:20;;;;;;;9.35;5.60;;;;;;;;;;5030455;28;20363;-67
2022/07/19 07:52:45;;;;;;;12.20;5.47;;;;;;;;;;5031754;28;20234;-68
2022/07/19 07:55:10;;;;;;;8.55;5.43;;;;;;;;;;5031072;28;20617;-67
2022/07/19 07:57:35;;;;;;;9.20;5.10;;;;;;;;;;5031107;28;20211;-67
2022/07/19 08:00:01;;;;;;;14.75;5.43;;;;;;;;;;5031684;28;20238;-68
2022/07/19 08:02:26;;;;;;;12.32;5.13;;;;;;;;;;5031407;28;20270;-67
2022/07/19 08:04:51;;;;;;;9.95;4.90;;;;;;;;;;5030525;28;20223;-66
2022/07/19 08:07:17;;;;;;;15.57;5.25;;;;;;;;;;5030610;28;20631;-67
2022/07/19 08:09:42;;;;;;;11.85;4.68;;;;;;;;;;5031105;28;20666;-67
2022/07/19 08:12:07;;;;;;;10.38;5.10;;;;;;;;;;5030248;28;20692;-67
2022/07/19 08:14:33;;;;;;;12.48;4.75;;;;;;;;;;5031458;28;20208;-66
2022/07/19 08:16:58;;;;;;;11.18;4.90;;;;;;;;;;5031428;28;20583;-67
2022/07/19 08:19:24;;;;;;;9.55;4.35;;;;;;;;;;5030168;28;20208;-66
2022/07/19 08:21:49;;;;;;;12.30;4.22;;;;;;;;;;5031247;28;20208;-66
2022/07/19 08:24:15;;;;;;;11.60;4.57;;;;;;;;;;5030732;28;20216;-65
2022/07/19 08:26:40;;;;;;;14.30;3.90;;;;;;;;;;5030320;28;20319;-66
2022/07/19 08:29:05;;;;;;;9.40;3.80;;;;;;;;;;5031044;28;20209;-67
2022/07/19 08:31:31;;;;;;;13.23;3.70;;;;;;;;;;5031715;28;20216;-67
2022/07/19 08:33:56;;;;;;;14.45;4.15;;;;;;;;;;5030361;28;20203;-67
2022/07/19 08:36:21;;;;;;;8.48;3.40;;;;;;;;;;5030648;28;20681;-67
2022/07/19 08:38:47;;;;;;;15.32;3.40;;;;;;;;;;5031050;28;20334;-66
2022/07/19 08:41:13;;;;;;;12.88;4.70;;;;;;;;;;5029738;28;20732;-66
2022/07/19 08:43:38;;;;;;;7.75;3.05;;;;;;;;;;5031346;28;20228;-67
2022/07/19 08:46:03;;;;;;;7.47;3.00;;;;;;;;;;5031029;28;20229;-68
2022/07/19 08:48:30;;;;;;;8.63;3.15;;;;;;;;;;5016729;28;20207;-67
2022/07/19 08:50:56;;;;;;;9.05;3.00;;;;;;;;;;5017652;28;20215;-66
2022/07/19 08:53:21;;;;;;;10.73;2.70;;;;;;;;;;5033847;28;20666;-68
2022/07/19 08:55:48;;;;;;;7.47;3.25;;;;;;;;;;5017419;28;20391;-70
2022/07/19 08:58:13;;;;;;;9.43;2.90;;;;;;;;;;5034660;28;20297;-68
2022/07/19 09:00:38;;;;;;;10.57;3.25;;;;;;;;;;5034336;28;20546;-67
2022/07/19 09:03:04;;;;;;;11.55;2.50;;;;;;;;;;5016735;28;20224;-68
2022/07/19 09:05:30;;;;;;;12.52;2.90;;;;;;;;;;5034645;28;20223;-67
2022/07/19 09:07:59;;;;;;;13.00;3.08;;;;;;;;;;5033935;28;20219;-68
2022/07/19 09:10:24;;;;;;;9.13;2.55;;;;;;;;;;5025171;28;20219;-67
2022/07/19 09:12:57;;;;;;;8.57;3.40;;;;;;;;;;5033899;28;20736;-69
2022/07/19 09:15:34;;;;;;;10.88;2.75;;;;;;;;;;5033475;28;20544;-68
2022/07/19 09:18:07;;;;;;;8.65;2.75;;;;;;;;;;5034353;28;20211;-68
2022/07/19 09:20:32;;;;;;;11.90;2.80;;;;;;;;;;5034269;28;20270;-68
2022/07/19 09:22:58;;;;;;;12.80;3.10;;;;;;;;;;5033415;28;20228;-66
2022/07/19 09:25:36;;;;;;;14.73;3.13;;;;;;;;;;5033942;28;20269;-67
2022/07/19 09:28:02;;;;;;;13.45;3.25;;;;;;;;;;5034255;28;20291;-67
2022/07/19 09:30:36;;;;;;;9.88;3.25;;;;;;;;;;5033498;28;20294;-66
2022/07/19 09:33:08;;;;;;;8.80;2.80;;;;;;;;;;5033815;28;20273;-68
2022/07/19 09:35:38;;;;;;;9.30;2.88;;;;;;;;;;5033284;28;20637;-64
2022/07/19 09:38:17;;;;;;;11.13;3.20;;;;;;;;;;5016476;28;20212;-65
2022/07/19 09:40:42;;;;;;;9.80;2.55;;;;;;;;;;5034178;28;20226;-64
2022/07/19 09:43:07;;;;;;;9.55;3.08;;;;;;;;;;5032815;28;20224;-64
2022/07/19 09:45:33;;;;;;;11.88;2.60;;;;;;;;;;5033915;28;20220;-64
2022/07/19 09:48:00;;;;;;;9.85;3.08;;;;;;;;;;5034230;28;20302;-65
2022/07/19 09:50:25;;;;;;;10.63;2.53;;;;;;;;;;5032792;28;20208;-64
2022/07/19 09:52:51;;;;;;;9.55;2.60;;;;;;;;;;5034262;28;20216;-63
2022/07/19 09:55:16;;;;;;;7.30;2.65;;;;;;;;;;5033668;28;20223;-64
2022/07/19 09:57:42;;;;;;;9.82;3.17;;;;;;;;;;5032728;28;20353;-64
2022/07/19 10:00:08;;;;;;;9.18;2.42;;;;;;;;;;5033205;28;20706;-64
2022/07/19 10:02:35;;;;;;;6.32;2.25;;;;;;;;;;5016062;28;20570;-64
2022/07/19 10:05:01;;;;;;;7.88;2.35;;;;;;;;;;5032744;28;20216;-66
2022/07/19 10:07:26;;;;;;;8.13;3.10;;;;;;;;;;5034092;28;20227;-63
2022/07/19 10:09:52;;;;;;;7.95;2.50;;;;;;;;;;5034043;28;20242;-63
2022/07/19 10:12:17;;;;;;;9.43;2.35;;;;;;;;;;5040733;28;20215;-64
2022/07/19 10:14:42;;;;;;;10.27;2.85;;;;;;;;;;5033286;28;20579;-64
2022/07/19 10:17:18;;;;;;;9.40;2.85;;;;;;;;;;5032843;28;20666;-64
2022/07/19 10:19:44;;;;;;;10.20;2.75;;;;;;;;;;5032870;28;20231;-64
2022/07/19 10:22:11;;;;;;;18.52;2.67;;;;;;;;;;5033315;28;20687;-65
2022/07/19 10:24:43;;;;;;;7.07;2.60;;;;;;;;;;5033489;28;20230;-65
2022/07/19 10:27:08;;;;;;;6.85;3.00;;;;;;;;;;5031750;28;20640;-66
2022/07/19 10:29:33;;;;;;;9.87;3.30;;;;;;;;;;5031903;28;20497;-71
2022/07/19 10:32:04;;;;;;;6.43;2.60;;;;;;;;;;5015090;28;20224;-74
2022/07/19 10:34:29;;;;;;;4.97;2.50;;;;;;;;;;5040776;28;20735;-70
2022/07/19 10:36:55;;;;;;;11.13;2.70;;;;;;;;;;5041630;28;20215;-72
2022/07/19 10:39:20;;;;;;;7.55;3.10;;;;;;;;;;5031989;28;20216;-73
2022/07/19 10:42:04;;;;;;;6.55;2.72;;;;;;;;;;5032814;28;20231;-74
2022/07/19 10:44:30;;;;;;;7.30;2.85;;;;;;;;;;5040283;28;20219;-74
2022/07/19 10:46:55;;;;;;;6.15;2.38;;;;;;;;;;5040601;28;20266;-77
2022/07/19 10:49:50;;;;;;;8.60;2.35;;;;;;;;;;5032976;28;20282;-79
2022/07/19 10:52:27;;;;;;;7.78;2.20;;;;;;;;;;5032417;28;20587;-71
2022/07/19 10:55:11;;;;;;;4.85;2.40;;;;;;;;;;5031950;28;20223;-73
2022/07/19 10:57:37;;;;;;;8.07;2.50;;;;;;;;;;5039517;28;20222;-73
2022/07/19 11:00:06;;;;;;;5.90;2.30;;;;;;;;;;5040236;28;20218;-73
2022/07/19 11:02:31;;;;;;;6.75;2.05;;;;;;;;;;5014079;28;20219;-73
2022/07/19 11:04:56;;;;;;;8.20;2.40;;;;;;;;;;5032308;28;20581;-72
2022/07/19 11:07:22;;;;;;;7.88;2.30;;;;;;;;;;5030983;28;20227;-72
2022/07/19 11:09:49;;;;;;;8.18;2.38;;;;;;;;;;5032391;28;20238;-71
2022/07/19 11:12:20;;;;;;;5.90;2.17;;;;;;;;;;5031925;28;20689;-73
2022/07/19 11:14:45;;;;;;;11.05;2.70;;;;;;;;;;5031539;28;20196;-74
2022/07/19 11:17:11;;;;;;;6.60;2.58;;;;;;;;;;5031905;28;20705;-71
2022/07/19 11:19:36;;;;;;;9.68;2.22;;;;;;;;;;5032222;28;20212;-72
2022/07/19 11:22:01;;;;;;;7.60;2.40;;;;;;;;;;5030920;28;20215;-76
2022/07/19 11:24:27;;;;;;;7.97;2.05;;;;;;;;;;5032421;28;20227;-72
2022/07/19 11:26:52;;;;;;;7.28;2.20;;;;;;;;;;5032343;28;20219;-74
2022/07/19 11:29:18;;;;;;;9.93;2.00;;;;;;;;;;5031182;28;20211;-71
2022/07/19 11:31:47;;;;;;;15.35;2.78;;;;;;;;;;5031742;28;20212;-71
2022/07/19 11:34:13;;;;;;;7.85;2.45;;;;;;;;;;5031604;28;20671;-72
2022/07/19 11:36:38;;;;;;;5.60;2.20;;;;;;;;;;5030954;28;20216;-73
2022/07/19 11:39:03;;;;;;;7.38;2.22;;;;;;;;;;5031903;28;20208;-71
2022/07/19 11:41:29;;;;;;;6.93;2.30;;;;;;;;;;5032396;28;20227;-72
2022/07/19 11:43:57;;;;;;;8.98;2.60;;;;;;;;;;5031433;28;20227;-71
2022/07/19 11:46:23;;;;;;;7.80;2.03;;;;;;;;;;5031152;28;20200;-70
2022/07/19 11:48:48;;;;;;;6.00;2.00;;;;;;;;;;5031689;28;20212;-72
2022/07/19 11:51:14;;;;;;;6.78;2.25;;;;;;;;;;5030293;28;20303;-70
2022/07/19 11:53:40;;;;;;;7.05;2.40;;;;;;;;;;5028982;28;20220;-73
2022/07/19 11:56:06;;;;;;;8.02;2.28;;;;;;;;;;5031349;28;20561;-74
2022/07/19 11:58:31;;;;;;;11.63;2.75;;;;;;;;;;5031270;28;20246;-74
2022/07/19 12:01:00;;;;;;;8.00;2.15;;;;;;;;;;5031263;28;20258;-72
2022/07/19 12:03:26;;;;;;;7.65;2.08;;;;;;;;;;5041038;28;20709;-73
2022/07/19 12:06:01;;;;;;;7.43;1.85;;;;;;;;;;5034073;28;20233;-72
2022/07/19 12:08:40;;;;;;;8.13;2.00;;;;;;;;;;5031135;28;20219;-70
2022/07/19 12:11:21;;;;;;;8.65;1.75;;;;;;;;;;5049852;28;20290;-70
2022/07/19 12:13:47;;;;;;;5.70;1.75;;;;;;;;;;5044940;28;20208;-71
2022/07/19 12:16:13;;;;;;;10.00;2.03;;;;;;;;;;5040112;28;20279;-71
2022/07/19 12:18:42;;;;;;;6.05;1.83;;;;;;;;;;5039220;28;20257;-72
2022/07/19 12:21:15;;;;;;;4.03;2.00;;;;;;;;;;5041462;28;20199;-68
2022/07/19 12:23:40;;;;;;;6.57;1.77;;;;;;;;;;5050676;28;20229;-71
2022/07/19 12:26:05;;;;;;;8.48;2.20;;;;;;;;;;5049876;28;20215;-71
2022/07/19 12:28:31;;;;;;;7.00;1.90;;;;;;;;;;5032315;28;20211;-71
2022/07/19 12:31:02;;;;;;;10.40;2.03;;;;;;;;;;5040491;28;20219;-68
2022/07/19 12:33:28;;;;;;;10.38;2.00;;;;;;;;;;5039571;28;20556;-69
2022/07/19 12:35:53;;;;;;;7.68;2.00;;;;;;;;;;5032624;28;20736;-71
2022/07/19 12:38:25;;;;;;;5.03;1.45;;;;;;;;;;5003014;28;20208;-72
2022/07/19 12:40:51;;;;;;;3.83;1.50;;;;;;;;;;5004389;28;20611;-72
2022/07/19 12:43:16;;;;;;;8.00;1.60;;;;;;;;;;4997092;28;20270;-73
2022/07/19 12:45:43;;;;;;;4.22;1.73;;;;;;;;;;5023253;28;20225;-69
2022/07/19 12:48:11;;;;;;;8.73;1.83;;;;;;;;;;5028424;28;20298;-72
2022/07/19 12:50:38;;;;;;;3.47;1.60;;;;;;;;;;5008744;28;20213;-72
2022/07/19 12:53:05;;;;;;;4.50;1.60;;;;;;;;;;5015686;28;20265;-68
2022/07/19 12:55:31;;;;;;;6.43;1.70;;;;;;;;;;5025140;28;20301;-70
2022/07/19 12:57:57;;;;;;;8.25;1.80;;;;;;;;;;5004416;28;20771;-70
2022/07/19 13:00:22;;;;;;;6.57;1.80;;;;;;;;;;5008553;28;20227;-71
2022/07/19 13:02:48;;;;;;;5.95;2.17;;;;;;;;;;5017230;28;20211;-74
2022/07/19 13:05:13;;;;;;;7.00;1.83;;;;;;;;;;5017337;28;20235;-73
2022/07/19 13:07:39;;;;;;;5.05;1.73;;;;;;;;;;5023678;28;20591;-73
2022/07/19 13:10:04;;;;;;;7.28;2.00;;;;;;;;;;5029504;28;20799;-75
2022/07/19 13:12:29;;;;;;;7.47;1.50;;;;;;;;;;5038342;28;20552;-74
2022/07/19 13:14:55;;;;;;;3.28;1.55;;;;;;;;;;5024548;28;20535;-72
2022/07/19 13:17:20;;;;;;;5.47;1.48;;;;;;;;;;5024876;28;20275;-72
2022/07/19 13:19:45;;;;;;;4.88;1.50;;;;;;;;;;5025093;28;20231;-73
2022/07/19 13:22:11;;;;;;;4.78;1.60;;;;;;;;;;5019532;28;20255;-72
2022/07/19 13:24:36;;;;;;;5.57;1.63;;;;;;;;;;4995998;28;20587;-73
2022/07/19 13:27:02;;;;;;;4.25;1.45;;;;;;;;;;5004488;28;20221;-73
2022/07/19 13:29:27;;;;;;;5.70;1.60;;;;;;;;;;5021018;28;20235;-74
2022/07/19 13:31:52;;;;;;;4.85;1.60;;;;;;;;;;5025514;28;20223;-72
2022/07/19 13:34:18;;;;;;;5.13;1.50;;;;;;;;;;5027948;28;20226;-72
2022/07/19 13:36:43;;;;;;;5.90;1.40;;;;;;;;;;5028375;28;20230;-74
2022/07/19 13:39:09;;;;;;;5.50;1.77;;;;;;;;;;5027896;28;20250;-73
2022/07/19 13:41:36;;;;;;;8.10;2.03;;;;;;;;;;5028247;28;20220;-71
2022/07/19 13:44:01;;;;;;;9.15;1.58;;;;;;;;;;5025145;28;20922;-70
2022/07/19 13:46:27;;;;;;;12.27;1.83;;;;;;;;;;5021051;28;20235;-70
2022/07/19 13:48:52;;;;;;;8.98;1.65;;;;;;;;;;5020137;28;20211;-71
2022/07/19 13:51:18;;;;;;;12.63;1.80;;;;;;;;;;5022769;28;20216;-70
2022/07/19 13:53:43;;;;;;;4.35;1.45;;;;;;;;;;5027991;28;20653;-72
2022/07/19 13:56:09;;;;;;;9.48;1.90;;;;;;;;;;5026936;28;20293;-69
2022/07/19 13:58:34;;;;;;;3.17;1.52;;;;;;;;;;5047168;28;20298;-70
2022/07/19 14:00:59;;;;;;;5.30;1.70;;;;;;;;;;5047515;28;20215;-68
2022/07/19 14:03:25;;;;;;;9.98;1.90;;;;;;;;;;5046274;28;20231;-69
2022/07/19 14:05:50;;;;;;;7.85;1.70;;;;;;;;;;5047090;28;20249;-70
2022/07/19 14:08:15;;;;;;;6.10;1.58;;;;;;;;;;5039657;28;20277;-69
2022/07/19 14:10:41;;;;;;;5.00;1.90;;;;;;;;;;5038534;28;20728;-69
2022/07/19 14:13:06;;;;;;;7.38;1.70;;;;;;;;;;5028516;28;20214;-69
2022/07/19 14:15:32;;;;;;;6.95;2.13;;;;;;;;;;5028150;28;20211;-69
2022/07/19 14:17:57;;;;;;;24.33;2.95;;;;;;;;;;5027427;28;20218;-69
2022/07/19 14:20:23;;;;;;;6.13;1.90;;;;;;;;;;5027252;28;20220;-69
2022/07/19 14:22:48;;;;;;;3.97;1.80;;;;;;;;;;5027928;28;20695;-69
2022/07/19 14:25:13;;;;;;;5.53;1.85;;;;;;;;;;5005253;28;20646;-70
2022/07/19 14:27:39;;;;;;;9.60;2.10;;;;;;;;;;5021098;28;20286;-70
2022/07/19 14:30:04;;;;;;;6.03;2.15;;;;;;;;;;5022322;28;20212;-70
2022/07/19 14:32:29;;;;;;;6.03;1.88;;;;;;;;;;5038476;28;20291;-68
2022/07/19 14:34:55;;;;;;;5.95;1.98;;;;;;;;;;5039035;28;20273;-69